sensor_id;sensor_type;location;lat;lon;timestamp;pressure;altitude;pressure_sealevel;temperature
72054;BMP280;59918;51.280;7.950;2022-11-25T00:01:37;97710.91;;;6.30
72054;BMP280;59918;51.280;7.950;2022-11-25T00:04:14;97713.00;;;6.26
72054;BMP280;59918;51.280;7.950;2022-11-25T00:06:42;97713.22;;;6.25
72054;BMP280;59918;51.280;7.950;2022-11-25T00:09:10;97689.41;;;6.24
72054;BMP280;59918;51.280;7.950;2022-11-25T00:11:37;97701.41;;;6.24
72054;BMP280;59918;51.280;7.950;2022-11-25T00:14:03;97679.75;;;6.20
72054;BMP280;59918;51.280;7.950;2022-11-25T00:16:28;97686.78;;;6.18
72054;BMP280;59918;51.280;7.950;2022-11-25T00:18:57;97683.28;;;6.19
72054;BMP280;59918;51.280;7.950;2022-11-25T00:21:28;97677.56;;;6.17
72054;BMP280;59918;51.280;7.950;2022-11-25T00:24:01;97677.38;;;6.18
72054;BMP280;59918;51.280;7.950;2022-11-25T00:26:31;97673.25;;;6.18
72054;BMP280;59918;51.280;7.950;2022-11-25T00:29:10;97664.25;;;6.21
72054;BMP280;59918;51.280;7.950;2022-11-25T00:31:39;97666.97;;;6.20
72054;BMP280;59918;51.280;7.950;2022-11-25T00:34:14;97660.38;;;6.25
72054;BMP280;59918;51.280;7.950;2022-11-25T00:36:40;97663.59;;;6.34
72054;BMP280;59918;51.280;7.950;2022-11-25T00:39:13;97666.31;;;6.47
72054;BMP280;59918;51.280;7.950;2022-11-25T00:41:49;97663.47;;;6.56
72054;BMP280;59918;51.280;7.950;2022-11-25T00:44:18;97662.16;;;6.66
72054;BMP280;59918;51.280;7.950;2022-11-25T00:46:43;97660.44;;;6.73
72054;BMP280;59918;51.280;7.950;2022-11-25T00:49:21;97662.28;;;6.79
72054;BMP280;59918;51.280;7.950;2022-11-25T00:51:54;97682.19;;;6.84
72054;BMP280;59918;51.280;7.950;2022-11-25T00:54:46;97676.69;;;6.87
72054;BMP280;59918;51.280;7.950;2022-11-25T00:57:11;97667.88;;;6.89
72054;BMP280;59918;51.280;7.950;2022-11-25T00:59:36;97683.47;;;6.94
72054;BMP280;59918;51.280;7.950;2022-11-25T01:02:02;97681.94;;;6.99
72054;BMP280;59918;51.280;7.950;2022-11-25T01:04:33;97671.31;;;7.02
72054;BMP280;59918;51.280;7.950;2022-11-25T01:07:01;97683.59;;;7.07
72054;BMP280;59918;51.280;7.950;2022-11-25T01:09:30;97678.25;;;7.08
72054;BMP280;59918;51.280;7.950;2022-11-25T01:11:55;97676.53;;;7.09
72054;BMP280;59918;51.280;7.950;2022-11-25T01:14:26;97668.63;;;7.10
72054;BMP280;59918;51.280;7.950;2022-11-25T01:17:21;97675.53;;;7.10
72054;BMP280;59918;51.280;7.950;2022-11-25T01:19:55;97677.91;;;7.11
72054;BMP280;59918;51.280;7.950;2022-11-25T01:22:23;97664.34;;;7.11
72054;BMP280;59918;51.280;7.950;2022-11-25T01:24:48;97671.19;;;7.10
72054;BMP280;59918;51.280;7.950;2022-11-25T01:27:13;97672.00;;;7.11
72054;BMP280;59918;51.280;7.950;2022-11-25T01:30:05;97666.69;;;7.12
72054;BMP280;59918;51.280;7.950;2022-11-25T01:32:39;97663.00;;;7.15
72054;BMP280;59918;51.280;7.950;2022-11-25T01:35:05;97668.50;;;7.18
72054;BMP280;59918;51.280;7.950;2022-11-25T01:37:40;97663.63;;;7.23
72054;BMP280;59918;51.280;7.950;2022-11-25T01:40:08;97677.03;;;7.25
72054;BMP280;59918;51.280;7.950;2022-11-25T01:43:12;97683.16;;;7.30
72054;BMP280;59918;51.280;7.950;2022-11-25T01:45:41;97670.00;;;7.33
72054;BMP280;59918;51.280;7.950;2022-11-25T01:48:23;97678.44;;;7.34
72054;BMP280;59918;51.280;7.950;2022-11-25T01:50:55;97671.59;;;7.34
72054;BMP280;59918;51.280;7.950;2022-11-25T01:53:21;97685.34;;;7.33
72054;BMP280;59918;51.280;7.950;2022-11-25T01:55:51;97672.38;;;7.35
72054;BMP280;59918;51.280;7.950;2022-11-25T01:58:21;97675.09;;;7.33
72054;BMP280;59918;51.280;7.950;2022-11-25T02:00:53;97685.13;;;7.28
72054;BMP280;59918;51.280;7.950;2022-11-25T02:03:25;97684.53;;;7.27
72054;BMP280;59918;51.280;7.950;2022-11-25T02:05:59;97691.94;;;7.22
72054;BMP280;59918;51.280;7.950;2022-11-25T02:08:30;97683.06;;;7.18
72054;BMP280;59918;51.280;7.950;2022-11-25T02:11:00;97674.97;;;7.14
72054;BMP280;59918;51.280;7.950;2022-11-25T02:13:32;97676.72;;;7.14
72054;BMP280;59918;51.280;7.950;2022-11-25T02:15:58;97675.94;;;7.13
72054;BMP280;59918;51.280;7.950;2022-11-25T02:18:27;97684.84;;;7.17
72054;BMP280;59918;51.280;7.950;2022-11-25T02:21:02;97680.31;;;7.19
72054;BMP280;59918;51.280;7.950;2022-11-25T02:26:10;97680.69;;;7.16
72054;BMP280;59918;51.280;7.950;2022-11-25T02:28:36;97684.22;;;7.15
72054;BMP280;59918;51.280;7.950;2022-11-25T02:31:02;97683.25;;;7.16
72054;BMP280;59918;51.280;7.950;2022-11-25T02:33:33;97683.44;;;7.15
72054;BMP280;59918;51.280;7.950;2022-11-25T02:36:15;97680.69;;;7.16
72054;BMP280;59918;51.280;7.950;2022-11-25T02:38:47;97681.50;;;7.17
72054;BMP280;59918;51.280;7.950;2022-11-25T02:41:13;97670.28;;;7.18
72054;BMP280;59918;51.280;7.950;2022-11-25T02:43:43;97671.50;;;7.22
72054;BMP280;59918;51.280;7.950;2022-11-25T02:46:11;97675.44;;;7.24
72054;BMP280;59918;51.280;7.950;2022-11-25T02:48:38;97666.63;;;7.27
72054;BMP280;59918;51.280;7.950;2022-11-25T02:51:05;97657.78;;;7.29
72054;BMP280;59918;51.280;7.950;2022-11-25T02:53:30;97654.44;;;7.28
72054;BMP280;59918;51.280;7.950;2022-11-25T02:55:58;97650.66;;;7.25
72054;BMP280;59918;51.280;7.950;2022-11-25T02:58:26;97648.66;;;7.20
72054;BMP280;59918;51.280;7.950;2022-11-25T03:00:52;97646.69;;;7.22
72054;BMP280;59918;51.280;7.950;2022-11-25T03:03:17;97643.53;;;7.20
72054;BMP280;59918;51.280;7.950;2022-11-25T03:05:46;97636.84;;;7.19
72054;BMP280;59918;51.280;7.950;2022-11-25T03:08:16;97640.19;;;7.20
72054;BMP280;59918;51.280;7.950;2022-11-25T03:10:44;97637.63;;;7.20
72054;BMP280;59918;51.280;7.950;2022-11-25T03:13:09;97642.56;;;7.21
72054;BMP280;59918;51.280;7.950;2022-11-25T03:15:35;97638.25;;;7.22
72054;BMP280;59918;51.280;7.950;2022-11-25T03:18:02;97626.22;;;7.22
72054;BMP280;59918;51.280;7.950;2022-11-25T03:20:30;97648.28;;;7.23
72054;BMP280;59918;51.280;7.950;2022-11-25T03:23:01;97632.19;;;7.29
72054;BMP280;59918;51.280;7.950;2022-11-25T03:25:30;97642.84;;;7.32
72054;BMP280;59918;51.280;7.950;2022-11-25T03:28:16;97638.94;;;7.36
72054;BMP280;59918;51.280;7.950;2022-11-25T03:30:41;97643.06;;;7.37
72054;BMP280;59918;51.280;7.950;2022-11-25T03:33:07;97618.88;;;7.40
72054;BMP280;59918;51.280;7.950;2022-11-25T03:35:35;97629.69;;;7.42
72054;BMP280;59918;51.280;7.950;2022-11-25T03:38:00;97634.63;;;7.43
72054;BMP280;59918;51.280;7.950;2022-11-25T03:40:25;97616.72;;;7.43
72054;BMP280;59918;51.280;7.950;2022-11-25T03:42:51;97619.28;;;7.43
72054;BMP280;59918;51.280;7.950;2022-11-25T03:45:16;97614.56;;;7.40
72054;BMP280;59918;51.280;7.950;2022-11-25T03:47:43;97607.44;;;7.36
72054;BMP280;59918;51.280;7.950;2022-11-25T03:50:13;97606.03;;;7.33
72054;BMP280;59918;51.280;7.950;2022-11-25T03:52:41;97619.63;;;7.34
72054;BMP280;59918;51.280;7.950;2022-11-25T03:55:07;97613.72;;;7.33
72054;BMP280;59918;51.280;7.950;2022-11-25T03:57:35;97618.84;;;7.33
72054;BMP280;59918;51.280;7.950;2022-11-25T04:00:01;97614.09;;;7.30
72054;BMP280;59918;51.280;7.950;2022-11-25T04:02:27;97627.50;;;7.32
72054;BMP280;59918;51.280;7.950;2022-11-25T04:04:52;97627.50;;;7.32
72054;BMP280;59918;51.280;7.950;2022-11-25T04:07:20;97627.50;;;7.32
72054;BMP280;59918;51.280;7.950;2022-11-25T04:09:45;97628.66;;;7.30
72054;BMP280;59918;51.280;7.950;2022-11-25T04:12:19;97623.91;;;7.27
72054;BMP280;59918;51.280;7.950;2022-11-25T04:14:44;97619.97;;;7.25
72054;BMP280;59918;51.280;7.950;2022-11-25T04:17:13;97621.13;;;7.22
72054;BMP280;59918;51.280;7.950;2022-11-25T04:19:41;97619.56;;;7.21
72054;BMP280;59918;51.280;7.950;2022-11-25T04:22:16;97615.22;;;7.22
72054;BMP280;59918;51.280;7.950;2022-11-25T04:24:41;97613.66;;;7.21
72054;BMP280;59918;51.280;7.950;2022-11-25T04:27:06;97616.81;;;7.23
72054;BMP280;59918;51.280;7.950;2022-11-25T04:29:34;97627.25;;;7.27
72054;BMP280;59918;51.280;7.950;2022-11-25T04:31:59;97614.09;;;7.30
72054;BMP280;59918;51.280;7.950;2022-11-25T04:34:27;97618.66;;;7.35
72054;BMP280;59918;51.280;7.950;2022-11-25T04:36:55;97623.19;;;7.39
72054;BMP280;59918;51.280;7.950;2022-11-25T04:39:20;97617.13;;;7.40
72054;BMP280;59918;51.280;7.950;2022-11-25T04:41:46;97611.78;;;7.42
72054;BMP280;59918;51.280;7.950;2022-11-25T04:44:11;97615.16;;;7.42
72054;BMP280;59918;51.280;7.950;2022-11-25T04:46:39;97609.84;;;7.44
72054;BMP280;59918;51.280;7.950;2022-11-25T04:49:06;97612.03;;;7.47
72054;BMP280;59918;51.280;7.950;2022-11-25T04:51:32;97615.00;;;7.50
72054;BMP280;59918;51.280;7.950;2022-11-25T04:53:57;97617.34;;;7.52
72054;BMP280;59918;51.280;7.950;2022-11-25T04:56:22;97621.94;;;7.56
72054;BMP280;59918;51.280;7.950;2022-11-25T04:58:52;97632.59;;;7.60
72054;BMP280;59918;51.280;7.950;2022-11-25T05:01:17;97638.66;;;7.59
72054;BMP280;59918;51.280;7.950;2022-11-25T05:03:47;97643.59;;;7.60
72054;BMP280;59918;51.280;7.950;2022-11-25T05:06:12;97652.06;;;7.61
72054;BMP280;59918;51.280;7.950;2022-11-25T05:08:38;97650.50;;;7.60
72054;BMP280;59918;51.280;7.950;2022-11-25T05:11:03;97652.06;;;7.61
72054;BMP280;59918;51.280;7.950;2022-11-25T05:13:31;97681.06;;;7.67
72054;BMP280;59918;51.280;7.950;2022-11-25T05:15:58;97697.53;;;7.59
72054;BMP280;59918;51.280;7.950;2022-11-25T05:18:23;97710.81;;;7.48
72054;BMP280;59918;51.280;7.950;2022-11-25T05:20:48;97716.28;;;7.38
72054;BMP280;59918;51.280;7.950;2022-11-25T05:23:13;97705.38;;;7.30
72054;BMP280;59918;51.280;7.950;2022-11-25T05:25:42;97694.31;;;7.23
72054;BMP280;59918;51.280;7.950;2022-11-25T05:28:09;97693.91;;;7.20
72054;BMP280;59918;51.280;7.950;2022-11-25T05:30:40;97681.28;;;7.18
72054;BMP280;59918;51.280;7.950;2022-11-25T05:33:11;97673.00;;;7.16
72054;BMP280;59918;51.280;7.950;2022-11-25T05:35:41;97674.19;;;7.14
72054;BMP280;59918;51.280;7.950;2022-11-25T05:38:09;97681.25;;;7.12
72054;BMP280;59918;51.280;7.950;2022-11-25T05:43:37;97684.53;;;7.06
72054;BMP280;59918;51.280;7.950;2022-11-25T05:46:07;97673.72;;;7.04
72054;BMP280;59918;51.280;7.950;2022-11-25T05:48:33;97675.66;;;7.02
72054;BMP280;59918;51.280;7.950;2022-11-25T05:51:02;97686.66;;;7.02
72054;BMP280;59918;51.280;7.950;2022-11-25T05:53:28;97685.88;;;7.02
72054;BMP280;59918;51.280;7.950;2022-11-25T05:56:02;97690.81;;;7.03
72054;BMP280;59918;51.280;7.950;2022-11-25T05:58:28;97693.56;;;7.02
72054;BMP280;59918;51.280;7.950;2022-11-25T06:00:53;97699.28;;;7.04
72054;BMP280;59918;51.280;7.950;2022-11-25T06:03:28;97692.59;;;7.03
72054;BMP280;59918;51.280;7.950;2022-11-25T06:06:00;97694.94;;;7.04
72054;BMP280;59918;51.280;7.950;2022-11-25T06:08:29;97694.53;;;7.01
72054;BMP280;59918;51.280;7.950;2022-11-25T06:11:03;97693.94;;;6.99
72054;BMP280;59918;51.280;7.950;2022-11-25T06:13:28;97701.97;;;6.96
72054;BMP280;59918;51.280;7.950;2022-11-25T06:15:53;97703.91;;;6.94
72054;BMP280;59918;51.280;7.950;2022-11-25T06:18:24;97710.78;;;6.93
72054;BMP280;59918;51.280;7.950;2022-11-25T06:20:57;97710.19;;;6.91
72054;BMP280;59918;51.280;7.950;2022-11-25T06:23:22;97712.06;;;6.83
72054;BMP280;59918;51.280;7.950;2022-11-25T06:25:48;97704.22;;;6.85
72054;BMP280;59918;51.280;7.950;2022-11-25T06:28:13;97708.38;;;6.86
72054;BMP280;59918;51.280;7.950;2022-11-25T06:30:38;97712.31;;;6.88
72054;BMP280;59918;51.280;7.950;2022-11-25T06:33:06;97715.31;;;6.91
72054;BMP280;59918;51.280;7.950;2022-11-25T06:35:32;97717.03;;;6.91
72054;BMP280;59918;51.280;7.950;2022-11-25T06:37:58;97724.72;;;6.91
72054;BMP280;59918;51.280;7.950;2022-11-25T06:40:25;97723.75;;;6.92
72054;BMP280;59918;51.280;7.950;2022-11-25T06:42:53;97720.41;;;6.91
72054;BMP280;59918;51.280;7.950;2022-11-25T06:45:18;97729.66;;;6.92
72054;BMP280;59918;51.280;7.950;2022-11-25T06:47:44;97728.88;;;6.92
72054;BMP280;59918;51.280;7.950;2022-11-25T06:50:12;97725.97;;;6.95
72054;BMP280;59918;51.280;7.950;2022-11-25T06:52:37;97735.38;;;6.94
72054;BMP280;59918;51.280;7.950;2022-11-25T06:55:03;97735.38;;;6.94
72054;BMP280;59918;51.280;7.950;2022-11-25T06:57:29;97737.13;;;6.94
72054;BMP280;59918;51.280;7.950;2022-11-25T06:59:57;97737.31;;;6.92
72054;BMP280;59918;51.280;7.950;2022-11-25T07:02:22;97732.97;;;6.93
72054;BMP280;59918;51.280;7.950;2022-11-25T07:04:47;97739.69;;;6.94
72054;BMP280;59918;51.280;7.950;2022-11-25T07:07:13;97746.41;;;6.95
72054;BMP280;59918;51.280;7.950;2022-11-25T07:09:38;97742.88;;;6.96
72054;BMP280;59918;51.280;7.950;2022-11-25T07:12:12;97754.31;;;7.00
72054;BMP280;59918;51.280;7.950;2022-11-25T07:14:38;97753.34;;;7.01
72054;BMP280;59918;51.280;7.950;2022-11-25T07:17:06;97759.41;;;7.00
72054;BMP280;59918;51.280;7.950;2022-11-25T07:19:31;97763.19;;;7.04
72054;BMP280;59918;51.280;7.950;2022-11-25T07:21:56;97771.66;;;7.04
72054;BMP280;59918;51.280;7.950;2022-11-25T07:24:21;97779.94;;;7.06
72054;BMP280;59918;51.280;7.950;2022-11-25T07:26:57;97779.59;;;7.09
72054;BMP280;59918;51.280;7.950;2022-11-25T07:29:22;97788.03;;;7.10
72054;BMP280;59918;51.280;7.950;2022-11-25T07:31:48;97779.59;;;7.09
72054;BMP280;59918;51.280;7.950;2022-11-25T07:34:18;97782.56;;;7.13
72054;BMP280;59918;51.280;7.950;2022-11-25T07:37:05;97788.28;;;7.15
72054;BMP280;59918;51.280;7.950;2022-11-25T07:39:29;97782.97;;;7.16
72054;BMP280;59918;51.280;7.950;2022-11-25T07:41:58;97796.97;;;7.20
72054;BMP280;59918;51.280;7.950;2022-11-25T07:44:23;97795.84;;;7.23
72054;BMP280;59918;51.280;7.950;2022-11-25T07:46:51;97800.41;;;7.27
72054;BMP280;59918;51.280;7.950;2022-11-25T07:49:21;97815.19;;;7.31
72054;BMP280;59918;51.280;7.950;2022-11-25T07:52:09;97814.84;;;7.34
72054;BMP280;59918;51.280;7.950;2022-11-25T07:54:42;97819.56;;;7.37
72054;BMP280;59918;51.280;7.950;2022-11-25T07:57:07;97814.28;;;7.39
72054;BMP280;59918;51.280;7.950;2022-11-25T07:59:42;97807.41;;;7.39
72054;BMP280;59918;51.280;7.950;2022-11-25T08:02:12;97817.28;;;7.42
72054;BMP280;59918;51.280;7.950;2022-11-25T08:04:40;97813.72;;;7.43
72054;BMP280;59918;51.280;7.950;2022-11-25T08:07:06;97825.72;;;7.43
72054;BMP280;59918;51.280;7.950;2022-11-25T08:09:31;97826.91;;;7.40
72054;BMP280;59918;51.280;7.950;2022-11-25T08:11:56;97822.75;;;7.39
72054;BMP280;59918;51.280;7.950;2022-11-25T08:14:27;97824.34;;;7.40
72054;BMP280;59918;51.280;7.950;2022-11-25T08:16:52;97818.84;;;7.43
72054;BMP280;59918;51.280;7.950;2022-11-25T08:19:17;97821.84;;;7.47
72054;BMP280;59918;51.280;7.950;2022-11-25T08:21:43;97830.28;;;7.47
72054;BMP280;59918;51.280;7.950;2022-11-25T08:24:13;97830.13;;;7.49
72054;BMP280;59918;51.280;7.950;2022-11-25T08:26:38;97831.91;;;7.48
72054;BMP280;59918;51.280;7.950;2022-11-25T08:29:06;97840.97;;;7.51
72054;BMP280;59918;51.280;7.950;2022-11-25T08:31:34;97839.00;;;7.53
72054;BMP280;59918;51.280;7.950;2022-11-25T08:34:00;97847.13;;;7.56
72054;BMP280;59918;51.280;7.950;2022-11-25T08:36:27;97849.28;;;7.59
72054;BMP280;59918;51.280;7.950;2022-11-25T08:38:54;97850.91;;;7.60
72054;BMP280;59918;51.280;7.950;2022-11-25T08:41:30;97844.19;;;7.59
72054;BMP280;59918;51.280;7.950;2022-11-25T08:43:57;97851.50;;;7.62
72054;BMP280;59918;51.280;7.950;2022-11-25T08:46:27;97845.81;;;7.66
72054;BMP280;59918;51.280;7.950;2022-11-25T08:48:54;97849.97;;;7.67
72054;BMP280;59918;51.280;7.950;2022-11-25T08:51:23;97858.88;;;7.71
72054;BMP280;59918;51.280;7.950;2022-11-25T08:53:49;97857.72;;;7.74
72054;BMP280;59918;51.280;7.950;2022-11-25T08:56:18;97866.78;;;7.76
72054;BMP280;59918;51.280;7.950;2022-11-25T08:58:46;97863.66;;;7.81
72054;BMP280;59918;51.280;7.950;2022-11-25T09:01:12;97863.28;;;7.84
72054;BMP280;59918;51.280;7.950;2022-11-25T09:03:43;97859.00;;;7.91
72054;BMP280;59918;51.280;7.950;2022-11-25T09:06:12;97864.19;;;7.97
72054;BMP280;59918;51.280;7.950;2022-11-25T09:08:47;97872.84;;;7.96
72054;BMP280;59918;51.280;7.950;2022-11-25T09:11:13;97872.22;;;7.94
72054;BMP280;59918;51.280;7.950;2022-11-25T09:13:38;97873.22;;;7.93
72054;BMP280;59918;51.280;7.950;2022-11-25T09:16:04;97878.75;;;7.97
72054;BMP280;59918;51.280;7.950;2022-11-25T09:18:35;97889.84;;;8.03
72054;BMP280;59918;51.280;7.950;2022-11-25T09:21:09;97888.16;;;8.10
72054;BMP280;59918;51.280;7.950;2022-11-25T09:23:38;97888.75;;;8.12
72054;BMP280;59918;51.280;7.950;2022-11-25T09:26:03;97887.66;;;8.21
72054;BMP280;59918;51.280;7.950;2022-11-25T09:28:29;97884.34;;;8.27
72054;BMP280;59918;51.280;7.950;2022-11-25T09:30:56;97900.00;;;8.38
72054;BMP280;59918;51.280;7.950;2022-11-25T09:33:21;97896.84;;;8.43
72054;BMP280;59918;51.280;7.950;2022-11-25T09:35:47;97900.44;;;8.48
72054;BMP280;59918;51.280;7.950;2022-11-25T09:38:12;97904.38;;;8.51
72054;BMP280;59918;51.280;7.950;2022-11-25T09:45:53;97927.56;;;8.64
72054;BMP280;59918;51.280;7.950;2022-11-25T09:48:52;97925.03;;;8.70
72054;BMP280;59918;51.280;7.950;2022-11-25T09:51:23;97924.25;;;8.76
72054;BMP280;59918;51.280;7.950;2022-11-25T09:54:17;97914.63;;;8.84
72054;BMP280;59918;51.280;7.950;2022-11-25T09:56:51;97924.81;;;9.05
72054;BMP280;59918;51.280;7.950;2022-11-25T09:59:23;97921.50;;;9.24
72054;BMP280;59918;51.280;7.950;2022-11-25T10:02:02;97921.72;;;9.29
72054;BMP280;59918;51.280;7.950;2022-11-25T10:04:45;97938.25;;;9.20
72054;BMP280;59918;51.280;7.950;2022-11-25T10:07:21;97937.31;;;9.21
72054;BMP280;59918;51.280;7.950;2022-11-25T10:09:48;97940.47;;;9.23
72054;BMP280;59918;51.280;7.950;2022-11-25T10:12:37;97936.72;;;9.25
72054;BMP280;59918;51.280;7.950;2022-11-25T10:15:39;97940.47;;;9.29
72054;BMP280;59918;51.280;7.950;2022-11-25T10:18:18;97943.22;;;9.28
72054;BMP280;59918;51.280;7.950;2022-11-25T10:20:46;97944.59;;;9.24
72054;BMP280;59918;51.280;7.950;2022-11-25T10:23:39;97950.47;;;9.11
72054;BMP280;59918;51.280;7.950;2022-11-25T10:26:15;97954.63;;;9.12
72054;BMP280;59918;51.280;7.950;2022-11-25T10:28:51;97958.97;;;9.12
72054;BMP280;59918;51.280;7.950;2022-11-25T10:31:24;97960.56;;;9.13
72054;BMP280;59918;51.280;7.950;2022-11-25T10:33:55;97966.38;;;9.34
72054;BMP280;59918;51.280;7.950;2022-11-25T10:36:28;97962.88;;;9.54
72054;BMP280;59918;51.280;7.950;2022-11-25T10:39:06;97954.22;;;9.68
72054;BMP280;59918;51.280;7.950;2022-11-25T10:41:42;97953.94;;;11.17
72054;BMP280;59918;51.280;7.950;2022-11-25T10:44:24;97945.66;;;11.96
72054;BMP280;59918;51.280;7.950;2022-11-25T10:51:55;97961.41;;;10.62
72054;BMP280;59918;51.280;7.950;2022-11-25T10:54:22;97972.13;;;10.40
72054;BMP280;59918;51.280;7.950;2022-11-25T10:56:56;97966.19;;;10.20
72054;BMP280;59918;51.280;7.950;2022-11-25T10:59:32;97967.75;;;10.02
72054;BMP280;59918;51.280;7.950;2022-11-25T11:07:36;97976.84;;;10.05
72054;BMP280;59918;51.280;7.950;2022-11-25T11:10:21;97975.47;;;10.09
72054;BMP280;59918;51.280;7.950;2022-11-25T11:17:55;97982.22;;;10.16
72054;BMP280;59918;51.280;7.950;2022-11-25T11:20:26;97984.97;;;10.15
72054;BMP280;59918;51.280;7.950;2022-11-25T11:27:45;97992.69;;;10.47
72054;BMP280;59918;51.280;7.950;2022-11-25T11:30:21;98006.50;;;10.39
72054;BMP280;59918;51.280;7.950;2022-11-25T11:38:25;97998.63;;;10.34
72054;BMP280;59918;51.280;7.950;2022-11-25T11:41:00;97995.63;;;10.37
72054;BMP280;59918;51.280;7.950;2022-11-25T11:46:42;97993.47;;;11.35
72054;BMP280;59918;51.280;7.950;2022-11-25T11:54:45;97993.78;;;11.08
72054;BMP280;59918;51.280;7.950;2022-11-25T11:59:51;98020.75;;;10.55
72054;BMP280;59918;51.280;7.950;2022-11-25T12:07:52;98026.69;;;10.29
72054;BMP280;59918;51.280;7.950;2022-11-25T12:10:21;98015.22;;;10.38
72054;BMP280;59918;51.280;7.950;2022-11-25T12:18:34;98025.13;;;10.60
72054;BMP280;59918;51.280;7.950;2022-11-25T12:21:03;98031.63;;;10.76
72054;BMP280;59918;51.280;7.950;2022-11-25T12:26:48;98029.22;;;11.06
72054;BMP280;59918;51.280;7.950;2022-11-25T12:29:24;98029.81;;;11.08
72054;BMP280;59918;51.280;7.950;2022-11-25T12:32:21;98035.97;;;11.01
72054;BMP280;59918;51.280;7.950;2022-11-25T12:35:23;98055.56;;;10.89
72054;BMP280;59918;51.280;7.950;2022-11-25T12:40:36;98050.44;;;10.83
72054;BMP280;59918;51.280;7.950;2022-11-25T12:48:41;98063.69;;;10.73
72054;BMP280;59918;51.280;7.950;2022-11-25T12:51:19;98057.38;;;10.76
72054;BMP280;59918;51.280;7.950;2022-11-25T12:56:20;98058.94;;;10.83
72054;BMP280;59918;51.280;7.950;2022-11-25T12:59:16;98064.69;;;10.79
72054;BMP280;59918;51.280;7.950;2022-11-25T13:08:30;98074.38;;;10.83
72054;BMP280;59918;51.280;7.950;2022-11-25T13:11:11;98073.38;;;10.97
72054;BMP280;59918;51.280;7.950;2022-11-25T13:16:32;98084.03;;;11.13
72054;BMP280;59918;51.280;7.950;2022-11-25T13:18:57;98082.88;;;11.03
72054;BMP280;59918;51.280;7.950;2022-11-25T13:21:23;98090.81;;;10.95
72054;BMP280;59918;51.280;7.950;2022-11-25T13:23:54;98090.59;;;10.90
72054;BMP280;59918;51.280;7.950;2022-11-25T13:28:55;98102.06;;;10.62
72054;BMP280;59918;51.280;7.950;2022-11-25T13:31:22;98108.59;;;10.52
72054;BMP280;59918;51.280;7.950;2022-11-25T13:36:23;98114.88;;;10.36
72054;BMP280;59918;51.280;7.950;2022-11-25T13:46:47;98126.38;;;10.47
72054;BMP280;59918;51.280;7.950;2022-11-25T13:49:29;98121.25;;;10.66
72054;BMP280;59918;51.280;7.950;2022-11-25T13:54:53;98124.81;;;10.65
72054;BMP280;59918;51.280;7.950;2022-11-25T13:57:26;98130.34;;;10.62
72054;BMP280;59918;51.280;7.950;2022-11-25T13:59:53;98139.03;;;10.61
72054;BMP280;59918;51.280;7.950;2022-11-25T14:02:23;98137.47;;;10.60
72054;BMP280;59918;51.280;7.950;2022-11-25T14:24:54;98168.66;;;10.31
72054;BMP280;59918;51.280;7.950;2022-11-25T14:27:26;98173.00;;;10.31
72054;BMP280;59918;51.280;7.950;2022-11-25T14:32:33;98178.34;;;10.29
72054;BMP280;59918;51.280;7.950;2022-11-25T14:35:03;98177.78;;;10.34
72054;BMP280;59918;51.280;7.950;2022-11-25T14:37:50;98178.94;;;10.31
72054;BMP280;59918;51.280;7.950;2022-11-25T14:40:50;98186.28;;;10.34
72054;BMP280;59918;51.280;7.950;2022-11-25T14:43:20;98180.56;;;10.45
72054;BMP280;59918;51.280;7.950;2022-11-25T14:45:45;98185.31;;;10.48
72054;BMP280;59918;51.280;7.950;2022-11-25T14:48:17;98192.63;;;10.45
72054;BMP280;59918;51.280;7.950;2022-11-25T14:50:57;98197.16;;;10.36
72054;BMP280;59918;51.280;7.950;2022-11-25T14:53:23;98196.13;;;10.24
72054;BMP280;59918;51.280;7.950;2022-11-25T14:55:51;98195.47;;;10.10
72054;BMP280;59918;51.280;7.950;2022-11-25T14:58:17;98201.91;;;9.93
72054;BMP280;59918;51.280;7.950;2022-11-25T15:01:05;98202.56;;;9.74
72054;BMP280;59918;51.280;7.950;2022-11-25T15:03:33;98200.72;;;9.62
72054;BMP280;59918;51.280;7.950;2022-11-25T15:06:04;98204.97;;;9.48
72054;BMP280;59918;51.280;7.950;2022-11-25T15:08:38;98206.28;;;9.38
72054;BMP280;59918;51.280;7.950;2022-11-25T15:11:18;98214.72;;;9.32
72054;BMP280;59918;51.280;7.950;2022-11-25T15:13:51;98217.78;;;9.21
72054;BMP280;59918;51.280;7.950;2022-11-25T15:16:22;98214.28;;;9.08
72054;BMP280;59918;51.280;7.950;2022-11-25T15:18:54;98228.00;;;8.94
72054;BMP280;59918;51.280;7.950;2022-11-25T15:21:22;98230.25;;;8.83
72054;BMP280;59918;51.280;7.950;2022-11-25T15:23:49;98232.69;;;8.70
72054;BMP280;59918;51.280;7.950;2022-11-25T15:26:21;98236.16;;;8.63
72054;BMP280;59918;51.280;7.950;2022-11-25T15:29:01;98240.53;;;8.48
72054;BMP280;59918;51.280;7.950;2022-11-25T15:31:32;98243.09;;;8.34
72054;BMP280;59918;51.280;7.950;2022-11-25T15:34:03;98245.34;;;8.22
72054;BMP280;59918;51.280;7.950;2022-11-25T15:36:32;98243.06;;;8.13
72054;BMP280;59918;51.280;7.950;2022-11-25T15:41:53;98265.66;;;8.09
72054;BMP280;59918;51.280;7.950;2022-11-25T15:44:26;98262.94;;;8.11
72054;BMP280;59918;51.280;7.950;2022-11-25T15:46:59;98266.16;;;8.05
72054;BMP280;59918;51.280;7.950;2022-11-25T15:49:26;98274.28;;;7.94
72054;BMP280;59918;51.280;7.950;2022-11-25T15:51:55;98271.19;;;7.84
72054;BMP280;59918;51.280;7.950;2022-11-25T15:54:38;98283.00;;;7.71
72054;BMP280;59918;51.280;7.950;2022-11-25T15:57:33;98282.81;;;7.58
72054;BMP280;59918;51.280;7.950;2022-11-25T16:07:59;98310.66;;;7.53
72054;BMP280;59918;51.280;7.950;2022-11-25T16:13:28;98320.78;;;7.32
72054;BMP280;59918;51.280;7.950;2022-11-25T16:21:05;98326.28;;;7.22
72054;BMP280;59918;51.280;7.950;2022-11-25T16:23:36;98323.66;;;7.29
72054;BMP280;59918;51.280;7.950;2022-11-25T16:26:24;98343.97;;;7.31
72054;BMP280;59918;51.280;7.950;2022-11-25T16:28:54;98335.31;;;7.32
72054;BMP280;59918;51.280;7.950;2022-11-25T16:31:20;98350.16;;;7.36
72054;BMP280;59918;51.280;7.950;2022-11-25T16:33:46;98347.72;;;7.43
72054;BMP280;59918;51.280;7.950;2022-11-25T16:36:11;98351.84;;;7.44
72054;BMP280;59918;51.280;7.950;2022-11-25T16:38:36;98352.31;;;7.47
72054;BMP280;59918;51.280;7.950;2022-11-25T16:41:13;98351.00;;;7.51
72054;BMP280;59918;51.280;7.950;2022-11-25T16:43:45;98358.00;;;7.57
72054;BMP280;59918;51.280;7.950;2022-11-25T16:46:14;98357.59;;;7.68
72054;BMP280;59918;51.280;7.950;2022-11-25T16:48:40;98357.06;;;7.72
72054;BMP280;59918;51.280;7.950;2022-11-25T16:51:17;98362.66;;;7.76
72054;BMP280;59918;51.280;7.950;2022-11-25T16:53:46;98365.47;;;7.81
72054;BMP280;59918;51.280;7.950;2022-11-25T16:56:22;98365.13;;;7.84
72054;BMP280;59918;51.280;7.950;2022-11-25T16:58:47;98371.84;;;7.85